Ash Grove, Missouri
Current Conditions -  °F | °C
As of 4:52 PM on Saturday 25 Oct 2014 (Local Time) from KSGF Reporting Station
Clear Clear  
Wind Chill: 82°   Ceiling: Unl
Heat Index: 82°   Visibility: 10mi
Dew Point: 60°   Wind: 3mph
Humidity: 47%   Direction: 310°NW
Pressure: 30.04"   Gusts: NA
Location:  37.32°N, 93.59°W
Report Text: KSGF 252152Z 31003KT 10SM CLR 28/16 A3004 RMK AO2 SLP160 T02780156
Loading
Personal Weather Stations






























Interactive Weather Map
Tropical Storm Tracking
New forecast layout! Learn more

10-Day Weather Forecast

Advertisements
Track Severe Weather on mobile